Time,TemperatureF,DewpointF,PressureIn,WindDirection,WindDirectionDegrees,WindSpeedMPH,WindSpeedGustMPH,Humidity,HourlyPrecipIn,Conditions,Clouds,dailyrainin,SoftwareType,DateUTC
2013-05-04 00:02:00,51.6,46.6,29.89,NE,45,0.0,0.0,83,0.00,,,0.00,meteohub,2013-05-04 07:02:00,
2013-05-04 00:07:00,51.6,46.6,29.89,NE,45,0.0,0.0,83,0.00,,,0.00,meteohub,2013-05-04 07:07:00,
2013-05-04 00:12:00,51.4,46.2,29.88,West,270,0.0,0.0,82,0.00,,,0.00,meteohub,2013-05-04 07:12:00,
2013-05-04 00:17:00,51.4,46.2,29.89,West,270,0.0,0.0,82,0.00,,,0.00,meteohub,2013-05-04 07:17:00,
2013-05-04 00:22:00,51.3,45.7,29.89,West,270,0.0,0.0,81,0.00,,,0.00,meteohub,2013-05-04 07:22:00,
2013-05-04 00:27:00,51.1,45.9,29.88,West,270,0.0,0.0,82,0.00,,,0.00,meteohub,2013-05-04 07:27:00,
2013-05-04 00:32:00,51.1,45.9,29.88,SE,135,0.0,0.0,82,0.00,,,0.00,meteohub,2013-05-04 07:32:00,
2013-05-04 00:37:00,51.1,45.5,29.88,SE,135,0.0,0.0,81,0.00,,,0.00,meteohub,2013-05-04 07:37:00,
2013-05-04 00:42:00,51.3,45.3,29.88,West,270,0.0,0.0,80,0.00,,,0.00,meteohub,2013-05-04 07:42:00,
2013-05-04 00:47:00,51.3,45.0,29.88,West,270,0.0,0.0,79,0.00,,,0.00,meteohub,2013-05-04 07:47:00,
2013-05-04 00:52:00,51.8,45.1,29.88,West,270,0.0,0.0,78,0.00,,,0.00,meteohub,2013-05-04 07:52:00,
2013-05-04 01:02:00,51.1,44.4,29.87,SW,225,0.0,0.0,78,0.00,,,0.00,meteohub,2013-05-04 08:02:00,
2013-05-04 01:07:00,51.1,44.4,29.87,SW,225,0.0,0.0,78,0.00,,,0.00,meteohub,2013-05-04 08:07:00,
2013-05-04 01:12:00,51.4,44.1,29.87,SW,225,0.0,0.0,76,0.00,,,0.00,meteohub,2013-05-04 08:12:00,
2013-05-04 01:17:00,51.6,43.9,29.86,South,180,0.0,2.0,75,0.00,,,0.00,meteohub,2013-05-04 08:17:00,
2013-05-04 01:22:00,51.6,43.9,29.86,South,180,0.0,2.0,75,0.00,,,0.00,meteohub,2013-05-04 08:22:00,
2013-05-04 01:27:00,51.6,43.5,29.86,South,180,0.0,0.0,74,0.00,,,0.00,meteohub,2013-05-04 08:27:00,
2013-05-04 01:32:00,51.6,43.5,29.86,West,270,0.0,0.0,74,0.00,,,0.00,meteohub,2013-05-04 08:32:00,
2013-05-04 01:37:00,51.6,43.3,29.85,West,270,0.0,0.0,73,0.00,,,0.00,meteohub,2013-05-04 08:37:00,
2013-05-04 01:42:00,51.4,43.2,29.85,West,270,0.0,0.0,73,0.00,,,0.00,meteohub,2013-05-04 08:42:00,
2013-05-04 01:47:00,51.4,42.8,29.85,West,270,0.0,0.0,72,0.00,,,0.00,meteohub,2013-05-04 08:47:00,
2013-05-04 01:52:00,51.6,43.0,29.85,West,270,0.0,0.0,72,0.00,,,0.00,meteohub,2013-05-04 08:52:00,
2013-05-04 01:57:00,51.8,42.6,29.85,West,270,0.0,0.0,71,0.00,,,0.00,meteohub,2013-05-04 08:57:00,
2013-05-04 02:02:00,52.0,42.8,29.84,West,270,0.0,0.0,71,0.00,,,0.00,meteohub,2013-05-04 09:02:00,
2013-05-04 02:07:00,52.0,42.8,29.85,West,270,0.0,0.0,71,0.00,,,0.00,meteohub,2013-05-04 09:07:00,
2013-05-04 02:12:00,52.5,42.6,29.84,West,270,0.0,0.0,69,0.00,,,0.00,meteohub,2013-05-04 09:12:00,
2013-05-04 02:17:00,52.9,43.0,29.84,WNW,293,0.0,0.0,69,0.00,,,0.00,meteohub,2013-05-04 09:17:00,
2013-05-04 02:22:00,52.9,42.6,29.84,WNW,293,0.0,0.0,68,0.00,,,0.00,meteohub,2013-05-04 09:22:00,
2013-05-04 02:27:00,52.7,42.4,29.84,North,0,0.0,0.0,68,0.00,,,0.00,meteohub,2013-05-04 09:27:00,
2013-05-04 02:32:00,52.5,42.3,29.84,North,0,0.0,0.0,68,0.00,,,0.00,meteohub,2013-05-04 09:32:00,
2013-05-04 02:37:00,52.5,42.3,29.83,North,0,0.0,0.0,68,0.00,,,0.00,meteohub,2013-05-04 09:37:00,
2013-05-04 02:42:00,52.5,41.9,29.83,North,0,0.0,0.0,67,0.00,,,0.00,meteohub,2013-05-04 09:42:00,
2013-05-04 02:47:00,52.5,41.5,29.83,North,0,0.0,0.0,66,0.00,,,0.00,meteohub,2013-05-04 09:47:00,
2013-05-04 02:52:00,52.5,41.5,29.83,North,0,0.0,0.0,66,0.00,,,0.00,meteohub,2013-05-04 09:52:00,
2013-05-04 02:57:00,52.5,41.2,29.83,North,0,0.0,0.0,65,0.00,,,0.00,meteohub,2013-05-04 09:57:00,
2013-05-04 03:02:00,52.5,40.6,29.83,North,0,0.0,0.0,64,0.00,,,0.00,meteohub,2013-05-04 10:02:00,
2013-05-04 03:07:00,52.5,40.6,29.83,North,0,0.0,0.0,64,0.00,,,0.00,meteohub,2013-05-04 10:07:00,
2013-05-04 03:12:00,52.3,40.1,29.82,North,0,0.0,0.0,63,0.00,,,0.00,meteohub,2013-05-04 10:12:00,
2013-05-04 03:17:00,52.2,39.6,29.82,North,0,0.0,0.0,62,0.00,,,0.00,meteohub,2013-05-04 10:17:00,
2013-05-04 03:22:00,52.2,39.6,29.82,North,0,0.0,0.0,62,0.00,,,0.00,meteohub,2013-05-04 10:22:00,
2013-05-04 03:27:00,52.2,39.6,29.82,North,0,0.0,0.0,62,0.00,,,0.00,meteohub,2013-05-04 10:27:00,
2013-05-04 03:32:00,52.0,38.5,29.81,North,0,0.0,0.0,60,0.00,,,0.00,meteohub,2013-05-04 10:32:00,
2013-05-04 03:37:00,52.0,38.5,29.82,North,0,0.0,0.0,60,0.00,,,0.00,meteohub,2013-05-04 10:37:00,
2013-05-04 03:42:00,52.0,38.5,29.81,North,0,0.0,0.0,60,0.00,,,0.00,meteohub,2013-05-04 10:42:00,
2013-05-04 03:47:00,51.8,37.9,29.82,SW,225,0.0,0.0,59,0.00,,,0.00,meteohub,2013-05-04 10:47:00,
2013-05-04 03:52:00,51.8,37.6,29.82,SW,225,0.0,0.0,58,0.00,,,0.00,meteohub,2013-05-04 10:52:00,
2013-05-04 03:57:00,51.8,37.6,29.82,SW,225,0.0,0.0,58,0.00,,,0.00,meteohub,2013-05-04 10:57:00,
2013-05-04 04:02:00,52.0,37.6,29.82,SW,225,0.0,0.0,58,0.00,,,0.00,meteohub,2013-05-04 11:02:00,
2013-05-04 04:07:00,52.0,37.6,29.82,SW,225,0.0,0.0,58,0.00,,,0.00,meteohub,2013-05-04 11:07:00,
2013-05-04 04:12:00,52.2,37.4,29.82,SW,225,0.0,0.0,57,0.00,,,0.00,meteohub,2013-05-04 11:12:00,
2013-05-04 04:17:00,52.0,37.2,29.81,SW,225,0.0,2.0,57,0.00,,,0.00,meteohub,2013-05-04 11:17:00,
2013-05-04 04:22:00,52.0,37.6,29.81,SW,225,0.0,2.0,58,0.00,,,0.00,meteohub,2013-05-04 11:22:00,
2013-05-04 04:27:00,52.0,37.2,29.81,SW,225,0.0,0.0,57,0.00,,,0.00,meteohub,2013-05-04 11:27:00,
2013-05-04 04:32:00,52.0,37.6,29.81,SW,225,0.0,0.0,58,0.00,,,0.00,meteohub,2013-05-04 11:32:00,
2013-05-04 04:37:00,51.8,37.6,29.81,SW,225,0.0,0.0,58,0.00,,,0.00,meteohub,2013-05-04 11:37:00,
2013-05-04 04:42:00,51.6,37.8,29.81,SW,225,0.0,0.0,59,0.00,,,0.00,meteohub,2013-05-04 11:42:00,
2013-05-04 04:47:00,51.3,37.4,29.82,SW,225,0.0,0.0,59,0.00,,,0.00,meteohub,2013-05-04 11:47:00,
2013-05-04 04:52:00,50.9,37.6,29.81,SW,225,0.0,0.0,60,0.00,,,0.00,meteohub,2013-05-04 11:52:00,
2013-05-04 04:57:00,50.7,37.8,29.81,SW,225,0.0,1.0,61,0.00,,,0.00,meteohub,2013-05-04 11:57:00,
2013-05-04 05:02:00,50.5,37.6,29.81,SW,225,0.0,1.0,61,0.00,,,0.00,meteohub,2013-05-04 12:02:00,
2013-05-04 05:07:00,50.5,37.9,29.82,SW,225,0.0,1.0,62,0.00,,,0.00,meteohub,2013-05-04 12:07:00,
2013-05-04 05:17:00,50.4,39.0,29.81,SW,225,0.0,1.0,65,0.00,,,0.00,meteohub,2013-05-04 12:17:00,
2013-05-04 05:23:00,50.4,39.4,29.82,SE,135,1.0,1.0,66,0.00,,,0.00,meteohub,2013-05-04 12:23:00,
2013-05-04 05:32:00,50.0,39.9,29.82,SW,225,0.0,1.0,68,0.00,,,0.00,meteohub,2013-05-04 12:32:00,
2013-05-04 05:37:00,50.0,40.3,29.82,SW,225,0.0,1.0,69,0.00,,,0.00,meteohub,2013-05-04 12:37:00,
2013-05-04 05:42:00,49.8,40.5,29.82,SW,225,0.0,0.0,70,0.00,,,0.00,meteohub,2013-05-04 12:42:00,
2013-05-04 05:47:00,49.6,40.6,29.82,East,90,3.0,0.0,71,0.00,,,0.00,meteohub,2013-05-04 12:47:00,
2013-05-04 05:52:00,49.6,41.4,29.82,East,90,2.0,4.0,73,0.00,,,0.00,meteohub,2013-05-04 12:52:00,
2013-05-04 05:57:00,49.8,42.6,29.81,East,90,2.0,4.0,76,0.00,,,0.00,meteohub,2013-05-04 12:57:00,
2013-05-04 06:02:00,49.8,43.0,29.81,South,180,1.0,4.0,77,0.00,,,0.00,meteohub,2013-05-04 13:02:00,
2013-05-04 06:07:00,50.0,43.7,29.82,East,90,1.0,2.0,79,0.00,,,0.00,meteohub,2013-05-04 13:07:00,
2013-05-04 06:12:00,50.2,44.2,29.82,East,90,0.0,2.0,80,0.00,,,0.00,meteohub,2013-05-04 13:12:00,
2013-05-04 06:17:00,50.2,44.6,29.82,West,270,1.0,2.0,81,0.00,,,0.00,meteohub,2013-05-04 13:17:00,
2013-05-04 06:22:00,49.8,44.2,29.82,West,270,0.0,2.0,81,0.00,,,0.00,meteohub,2013-05-04 13:22:00,
2013-05-04 06:27:00,49.3,43.3,29.82,West,270,0.0,1.0,80,0.00,,,0.00,meteohub,2013-05-04 13:27:00,
2013-05-04 06:32:00,48.9,43.3,29.82,West,270,0.0,1.0,81,0.00,,,0.00,meteohub,2013-05-04 13:32:00,
2013-05-04 06:37:00,48.7,43.2,29.81,West,270,0.0,0.0,81,0.00,,,0.00,meteohub,2013-05-04 13:37:00,
2013-05-04 06:42:00,48.7,43.5,29.82,West,270,0.0,0.0,82,0.00,,,0.00,meteohub,2013-05-04 13:42:00,
2013-05-04 06:47:00,48.7,43.5,29.81,West,270,0.0,0.0,82,0.00,,,0.00,meteohub,2013-05-04 13:47:00,
2013-05-04 06:52:00,48.9,44.1,29.82,West,270,0.0,0.0,83,0.00,,,0.00,meteohub,2013-05-04 13:52:00,
2013-05-04 06:57:00,48.9,44.1,29.81,West,270,0.0,0.0,83,0.00,,,0.00,meteohub,2013-05-04 13:57:00,
2013-05-04 07:02:00,49.1,44.2,29.81,East,90,2.0,0.0,83,0.00,,,0.00,meteohub,2013-05-04 14:02:00,
2013-05-04 07:07:00,49.5,44.8,29.82,SE,135,2.0,2.0,84,0.00,,,0.00,meteohub,2013-05-04 14:07:00,
2013-05-04 07:12:00,49.8,45.1,29.82,SE,135,0.0,3.0,84,0.00,,,0.00,meteohub,2013-05-04 14:12:00,
2013-05-04 07:17:00,49.8,45.1,29.81,SE,135,0.0,3.0,84,0.00,,,0.00,meteohub,2013-05-04 14:17:00,
2013-05-04 07:22:00,50.0,45.3,29.81,SE,135,0.0,3.0,84,0.00,,,0.00,meteohub,2013-05-04 14:22:00,
2013-05-04 07:27:00,49.8,45.1,29.81,West,270,0.0,2.0,84,0.00,,,0.00,meteohub,2013-05-04 14:27:00,
2013-05-04 07:32:00,50.2,45.5,29.81,SW,225,1.0,1.0,84,0.00,,,0.00,meteohub,2013-05-04 14:32:00,
2013-05-04 07:37:00,50.2,45.5,29.82,SW,225,0.0,1.0,84,0.00,,,0.00,meteohub,2013-05-04 14:37:00,
2013-05-04 07:42:00,50.4,45.7,29.81,West,270,0.0,1.0,84,0.00,,,0.00,meteohub,2013-05-04 14:42:00,
2013-05-04 07:47:00,50.5,45.9,29.81,SW,225,0.0,1.0,84,0.00,,,0.00,meteohub,2013-05-04 14:47:00,
2013-05-04 07:52:00,50.9,46.2,29.81,East,90,0.0,0.0,84,0.00,,,0.00,meteohub,2013-05-04 14:52:00,
2013-05-04 07:57:00,51.3,46.6,29.81,East,90,0.0,0.0,84,0.00,,,0.00,meteohub,2013-05-04 14:57:00,
2013-05-04 08:02:00,52.0,47.3,29.81,East,90,0.0,0.0,84,0.00,,,0.00,meteohub,2013-05-04 15:02:00,
2013-05-04 08:07:00,53.1,48.0,29.80,East,90,0.0,0.0,83,0.00,,,0.00,meteohub,2013-05-04 15:07:00,
2013-05-04 08:12:00,55.0,49.3,29.81,SW,225,0.0,1.0,81,0.00,,,0.00,meteohub,2013-05-04 15:12:00,
2013-05-04 08:17:00,56.5,50.0,29.81,SW,225,0.0,1.0,79,0.00,,,0.00,meteohub,2013-05-04 15:17:00,
2013-05-04 08:22:00,58.1,50.5,29.80,SW,225,1.0,1.0,76,0.00,,,0.00,meteohub,2013-05-04 15:22:00,
2013-05-04 08:27:00,59.2,50.5,29.81,South,180,0.0,1.0,73,0.00,,,0.00,meteohub,2013-05-04 15:27:00,
2013-05-04 08:32:00,59.9,50.5,29.80,SW,225,2.0,2.0,71,0.00,,,0.00,meteohub,2013-05-04 15:32:00,
2013-05-04 08:37:00,60.3,50.4,29.80,SE,135,1.0,2.0,70,0.00,,,0.00,meteohub,2013-05-04 15:37:00,
2013-05-04 08:42:00,60.8,50.5,29.79,West,270,1.0,2.0,69,0.00,,,0.00,meteohub,2013-05-04 15:42:00,
2013-05-04 08:47:00,61.3,50.7,29.80,NW,315,2.0,2.0,68,0.00,,,0.00,meteohub,2013-05-04 15:47:00,
2013-05-04 08:52:00,61.9,50.7,29.80,SW,225,2.0,3.0,67,0.00,,,0.00,meteohub,2013-05-04 15:52:00,
2013-05-04 08:57:00,62.2,51.1,29.79,SW,225,2.0,3.0,67,0.00,,,0.00,meteohub,2013-05-04 15:57:00,
2013-05-04 09:02:00,63.0,51.8,29.79,West,270,2.0,3.0,67,0.00,,,0.00,meteohub,2013-05-04 16:02:00,
2013-05-04 09:07:00,63.7,52.2,29.79,NW,315,2.0,3.0,66,0.00,,,0.00,meteohub,2013-05-04 16:07:00,
2013-05-04 09:12:00,64.0,52.0,29.79,NW,315,3.0,3.0,65,0.00,,,0.00,meteohub,2013-05-04 16:12:00,
2013-05-04 09:17:00,64.2,52.7,29.79,NW,315,2.0,3.0,66,0.00,,,0.00,meteohub,2013-05-04 16:17:00,
2013-05-04 09:22:00,64.4,52.9,29.79,NW,315,2.0,3.0,66,0.00,,,0.00,meteohub,2013-05-04 16:22:00,
2013-05-04 09:27:00,64.0,52.9,29.78,NW,315,3.0,3.0,67,0.00,,,0.00,meteohub,2013-05-04 16:27:00,
2013-05-04 09:32:00,63.9,53.1,29.78,NW,315,2.0,4.0,68,0.00,,,0.00,meteohub,2013-05-04 16:32:00,
2013-05-04 09:37:00,63.9,52.7,29.78,NW,315,3.0,4.0,67,0.00,,,0.00,meteohub,2013-05-04 16:37:00,
2013-05-04 09:42:00,63.7,52.9,29.78,North,0,3.0,4.0,68,0.00,,,0.00,meteohub,2013-05-04 16:42:00,
2013-05-04 09:47:00,63.3,52.5,29.78,West,270,2.0,4.0,68,0.00,,,0.00,meteohub,2013-05-04 16:47:00,
2013-05-04 09:52:00,63.5,53.1,29.77,NW,315,4.0,4.0,69,0.00,,,0.00,meteohub,2013-05-04 16:52:00,
2013-05-04 09:57:00,63.3,53.1,29.78,West,270,2.0,4.0,69,0.00,,,0.00,meteohub,2013-05-04 16:57:00,
2013-05-04 10:02:00,63.5,53.1,29.78,West,270,2.0,4.0,69,0.00,,,0.00,meteohub,2013-05-04 17:02:00,
2013-05-04 10:07:00,63.9,53.4,29.78,NW,315,2.0,4.0,69,0.00,,,0.00,meteohub,2013-05-04 17:07:00,
2013-05-04 10:12:00,63.9,53.1,29.78,North,0,2.0,3.0,68,0.00,,,0.00,meteohub,2013-05-04 17:12:00,
2013-05-04 10:17:00,64.2,53.4,29.78,NW,315,4.0,4.0,68,0.00,,,0.00,meteohub,2013-05-04 17:17:00,
2013-05-04 10:22:00,64.6,53.4,29.78,NW,315,3.0,4.0,67,0.00,,,0.00,meteohub,2013-05-04 17:22:00,
2013-05-04 10:27:00,64.8,53.6,29.78,NW,315,4.0,4.0,67,0.00,,,0.00,meteohub,2013-05-04 17:27:00,
2013-05-04 10:32:00,65.1,54.0,29.77,NW,315,2.0,4.0,67,0.00,,,0.00,meteohub,2013-05-04 17:32:00,
2013-05-04 10:37:00,65.3,53.6,29.78,NW,315,3.0,4.0,66,0.00,,,0.00,meteohub,2013-05-04 17:37:00,
2013-05-04 10:42:00,64.8,53.1,29.78,NW,315,2.0,4.0,66,0.00,,,0.00,meteohub,2013-05-04 17:42:00,
2013-05-04 10:47:00,64.8,53.6,29.78,NW,315,4.0,4.0,67,0.00,,,0.00,meteohub,2013-05-04 17:47:00,
2013-05-04 10:52:00,65.3,53.6,29.78,NW,315,3.0,4.0,66,0.00,,,0.00,meteohub,2013-05-04 17:52:00,
2013-05-04 10:57:00,65.7,53.6,29.78,NW,315,4.0,4.0,65,0.00,,,0.00,meteohub,2013-05-04 17:57:00,
2013-05-04 11:02:00,65.8,53.8,29.78,North,0,5.0,5.0,65,0.00,,,0.00,meteohub,2013-05-04 18:02:00,
2013-05-04 11:07:00,65.8,53.8,29.78,North,0,5.0,5.0,65,0.00,,,0.00,meteohub,2013-05-04 18:07:00,
2013-05-04 11:12:00,66.4,53.8,29.77,NW,315,3.0,5.0,64,0.00,,,0.00,meteohub,2013-05-04 18:12:00,
2013-05-04 11:17:00,66.4,53.8,29.77,NW,315,2.0,5.0,64,0.00,,,0.00,meteohub,2013-05-04 18:17:00,
2013-05-04 11:22:00,66.6,54.0,29.77,NE,45,2.0,5.0,64,0.00,,,0.00,meteohub,2013-05-04 18:22:00,
2013-05-04 11:27:00,67.3,54.3,29.76,NW,315,2.0,4.0,63,0.00,,,0.00,meteohub,2013-05-04 18:27:00,
2013-05-04 11:32:00,67.6,54.7,29.77,West,270,2.0,4.0,63,0.00,,,0.00,meteohub,2013-05-04 18:32:00,
2013-05-04 11:37:00,67.6,54.1,29.76,NW,315,4.0,5.0,62,0.00,,,0.00,meteohub,2013-05-04 18:37:00,
2013-05-04 11:42:00,67.8,54.3,29.77,NW,315,3.0,5.0,62,0.00,,,0.00,meteohub,2013-05-04 18:42:00,
2013-05-04 11:47:00,67.6,54.1,29.76,NE,45,4.0,5.0,62,0.00,,,0.00,meteohub,2013-05-04 18:47:00,
2013-05-04 11:52:00,67.6,54.1,29.77,NW,315,4.0,4.0,62,0.00,,,0.00,meteohub,2013-05-04 18:52:00,
2013-05-04 11:57:00,68.0,54.5,29.78,NW,315,3.0,4.0,62,0.00,,,0.00,meteohub,2013-05-04 18:57:00,
2013-05-04 12:02:00,67.5,54.0,29.78,NW,315,5.0,5.0,62,0.00,,,0.00,meteohub,2013-05-04 19:02:00,
2013-05-04 12:07:00,67.5,54.0,29.78,NW,315,5.0,5.0,62,0.00,,,0.00,meteohub,2013-05-04 19:07:00,
2013-05-04 12:12:00,66.9,53.4,29.78,NNW,338,4.0,5.0,62,0.00,,,0.00,meteohub,2013-05-04 19:12:00,
2013-05-04 12:17:00,66.4,52.9,29.79,North,0,4.0,8.0,62,0.00,,,0.00,meteohub,2013-05-04 19:17:00,
2013-05-04 12:22:00,64.9,52.0,29.78,North,0,6.0,8.0,63,0.00,,,0.00,meteohub,2013-05-04 19:22:00,
2013-05-04 12:27:00,62.8,51.6,29.79,NW,315,4.0,9.0,67,0.00,,,0.00,meteohub,2013-05-04 19:27:00,
2013-05-04 12:32:00,61.3,51.1,29.80,North,0,7.0,9.0,69,0.00,,,0.00,meteohub,2013-05-04 19:32:00,
2013-05-04 12:37:00,60.4,51.1,29.80,NNE,23,4.0,9.0,71,0.00,,,0.00,meteohub,2013-05-04 19:37:00,
2013-05-04 12:42:00,59.7,50.7,29.80,NW,315,7.0,7.0,72,0.00,,,0.00,meteohub,2013-05-04 19:42:00,
2013-05-04 12:47:00,59.2,50.5,29.80,NW,315,5.0,7.0,73,0.00,,,0.00,meteohub,2013-05-04 19:47:00,
2013-05-04 12:52:00,58.6,50.4,29.80,NW,315,3.0,7.0,74,0.00,,,0.00,meteohub,2013-05-04 19:52:00,
2013-05-04 12:57:00,58.5,50.2,29.80,NE,45,4.0,7.0,74,0.00,,,0.00,meteohub,2013-05-04 19:57:00,
2013-05-04 13:02:00,58.3,50.0,29.80,North,0,5.0,5.0,74,0.00,,,0.00,meteohub,2013-05-04 20:02:00,
2013-05-04 13:07:00,58.3,50.0,29.81,North,0,5.0,6.0,74,0.00,,,0.00,meteohub,2013-05-04 20:07:00,
2013-05-04 13:12:00,57.7,49.8,29.80,NW,315,2.0,6.0,75,0.00,,,0.00,meteohub,2013-05-04 20:12:00,
2013-05-04 13:17:00,57.4,49.8,29.79,NW,315,3.0,5.0,76,0.00,,,0.00,meteohub,2013-05-04 20:17:00,
2013-05-04 13:22:00,57.4,50.2,29.80,NW,315,2.0,5.0,77,0.00,,,0.00,meteohub,2013-05-04 20:22:00,
2013-05-04 13:27:00,57.6,50.0,29.80,NE,45,4.0,4.0,76,0.00,,,0.00,meteohub,2013-05-04 20:27:00,
2013-05-04 13:32:00,57.4,49.8,29.80,NW,315,3.0,5.0,76,0.00,,,0.00,meteohub,2013-05-04 20:32:00,
2013-05-04 13:42:00,57.2,50.4,29.79,NW,315,3.0,5.0,78,0.00,,,0.00,meteohub,2013-05-04 20:42:00,
2013-05-04 13:47:00,57.4,50.2,29.79,NW,315,2.0,5.0,77,0.00,,,0.00,meteohub,2013-05-04 20:47:00,
2013-05-04 13:52:00,58.8,51.3,29.79,North,0,4.0,5.0,76,0.00,,,0.00,meteohub,2013-05-04 20:52:00,
2013-05-04 13:57:00,59.4,51.1,29.79,NW,315,6.0,6.0,74,0.00,,,0.00,meteohub,2013-05-04 20:57:00,
2013-05-04 14:02:00,59.0,50.7,29.79,West,270,3.0,6.0,74,0.00,,,0.00,meteohub,2013-05-04 21:02:00,
2013-05-04 14:07:00,59.2,50.9,29.79,NNE,23,3.0,6.0,74,0.00,,,0.00,meteohub,2013-05-04 21:07:00,
2013-05-04 14:12:00,59.5,50.9,29.79,North,0,4.0,6.0,73,0.00,,,0.00,meteohub,2013-05-04 21:12:00,
2013-05-04 14:17:00,59.9,50.9,29.78,North,0,3.0,4.0,72,0.00,,,0.00,meteohub,2013-05-04 21:17:00,
2013-05-04 14:22:00,59.9,51.3,29.79,NW,315,4.0,4.0,73,0.00,,,0.00,meteohub,2013-05-04 21:22:00,
2013-05-04 14:27:00,59.9,51.3,29.79,NW,315,3.0,4.0,73,0.00,,,0.00,meteohub,2013-05-04 21:27:00,
2013-05-04 14:32:00,59.9,50.9,29.78,NE,45,5.0,5.0,72,0.00,,,0.00,meteohub,2013-05-04 21:32:00,
2013-05-04 14:37:00,59.9,50.9,29.78,NW,315,4.0,5.0,72,0.00,,,0.00,meteohub,2013-05-04 21:37:00,
2013-05-04 14:42:00,59.9,50.9,29.78,North,0,4.0,8.0,72,0.00,,,0.00,meteohub,2013-05-04 21:42:00,
2013-05-04 14:47:00,60.3,50.9,29.78,NE,45,4.0,8.0,71,0.00,,,0.00,meteohub,2013-05-04 21:47:00,
2013-05-04 14:52:00,60.3,50.9,29.77,NE,45,5.0,8.0,71,0.00,,,0.00,meteohub,2013-05-04 21:52:00,
2013-05-04 14:57:00,60.8,51.3,29.77,North,0,4.0,7.0,71,0.00,,,0.00,meteohub,2013-05-04 21:57:00,
2013-05-04 15:02:00,61.7,51.8,29.77,NW,315,2.0,7.0,70,0.00,,,0.00,meteohub,2013-05-04 22:02:00,
2013-05-04 15:07:00,61.9,51.3,29.77,North,0,4.0,5.0,68,0.00,,,0.00,meteohub,2013-05-04 22:07:00,
2013-05-04 15:12:00,62.4,51.8,29.76,North,0,4.0,8.0,68,0.00,,,0.00,meteohub,2013-05-04 22:12:00,
2013-05-04 15:17:00,62.4,51.8,29.77,NW,315,4.0,8.0,68,0.00,,,0.00,meteohub,2013-05-04 22:17:00,
2013-05-04 15:22:00,61.9,51.6,29.77,West,270,5.0,8.0,69,0.00,,,0.00,meteohub,2013-05-04 22:22:00,
2013-05-04 15:27:00,62.1,51.8,29.76,NE,45,4.0,7.0,69,0.00,,,0.00,meteohub,2013-05-04 22:27:00,
2013-05-04 15:32:00,62.1,51.8,29.76,NW,315,5.0,7.0,69,0.00,,,0.00,meteohub,2013-05-04 22:32:00,
2013-05-04 15:37:00,61.7,51.4,29.76,West,270,4.0,5.0,69,0.00,,,0.00,meteohub,2013-05-04 22:37:00,
2013-05-04 15:42:00,61.2,51.3,29.77,West,270,4.0,5.0,70,0.00,,,0.00,meteohub,2013-05-04 22:42:00,
2013-05-04 15:47:00,60.4,50.5,29.76,SE,135,4.0,5.0,70,0.00,,,0.00,meteohub,2013-05-04 22:47:00,
2013-05-04 15:52:00,59.7,50.7,29.76,North,0,4.0,5.0,72,0.00,,,0.00,meteohub,2013-05-04 22:52:00,
2013-05-04 15:57:00,59.0,50.4,29.77,NW,315,4.0,5.0,73,0.00,,,0.00,meteohub,2013-05-04 22:57:00,
2013-05-04 16:02:00,58.5,50.2,29.76,NW,315,3.0,7.0,74,0.00,,,0.00,meteohub,2013-05-04 23:02:00,
2013-05-04 16:07:00,58.1,49.8,29.76,South,180,3.0,7.0,74,0.00,,,0.00,meteohub,2013-05-04 23:07:00,
2013-05-04 16:12:00,57.9,50.0,29.76,NNE,23,2.0,6.0,75,0.00,,,0.00,meteohub,2013-05-04 23:12:00,
2013-05-04 16:17:00,57.7,49.8,29.76,North,0,3.0,7.0,75,0.00,,,0.00,meteohub,2013-05-04 23:17:00,
2013-05-04 16:22:00,57.6,50.0,29.76,NW,315,3.0,7.0,76,0.00,,,0.00,meteohub,2013-05-04 23:22:00,
2013-05-04 16:27:00,57.4,49.8,29.76,NW,315,2.0,7.0,76,0.00,,,0.00,meteohub,2013-05-04 23:27:00,
2013-05-04 16:32:00,57.2,49.6,29.75,NW,315,3.0,5.0,76,0.00,,,0.00,meteohub,2013-05-04 23:32:00,
2013-05-04 16:37:00,57.2,50.0,29.76,NW,315,3.0,5.0,77,0.00,,,0.00,meteohub,2013-05-04 23:37:00,
2013-05-04 16:42:00,57.0,49.8,29.75,NW,315,3.0,5.0,77,0.00,,,0.00,meteohub,2013-05-04 23:42:00,
2013-05-04 16:47:00,56.8,49.6,29.75,NW,315,4.0,4.0,77,0.00,,,0.00,meteohub,2013-05-04 23:47:00,
2013-05-04 16:52:00,56.7,49.5,29.76,NW,315,4.0,4.0,77,0.00,,,0.00,meteohub,2013-05-04 23:52:00,
2013-05-04 16:57:00,56.7,49.5,29.75,NW,315,2.0,4.0,77,0.00,,,0.00,meteohub,2013-05-04 23:57:00,
2013-05-04 17:02:00,56.8,49.6,29.75,NW,315,3.0,4.0,77,0.00,,,0.00,meteohub,2013-05-05 00:02:00,
2013-05-04 17:07:00,57.0,49.5,29.75,West,270,2.0,4.0,76,0.00,,,0.00,meteohub,2013-05-05 00:07:00,
2013-05-04 17:12:00,57.2,49.6,29.75,West,270,3.0,4.0,76,0.00,,,0.00,meteohub,2013-05-05 00:12:00,
2013-05-04 17:17:00,57.2,49.6,29.75,NW,315,3.0,4.0,76,0.00,,,0.00,meteohub,2013-05-05 00:17:00,
2013-05-04 17:22:00,57.0,49.5,29.75,NW,315,3.0,4.0,76,0.00,,,0.00,meteohub,2013-05-05 00:22:00,
2013-05-04 17:27:00,57.2,49.6,29.75,NW,315,4.0,4.0,76,0.00,,,0.00,meteohub,2013-05-05 00:27:00,
2013-05-04 17:32:00,57.4,49.8,29.75,North,0,4.0,4.0,76,0.00,,,0.00,meteohub,2013-05-05 00:32:00,
2013-05-04 17:37:00,57.4,49.8,29.75,NW,315,2.0,4.0,76,0.00,,,0.00,meteohub,2013-05-05 00:37:00,
2013-05-04 17:42:00,57.4,49.5,29.75,NW,315,2.0,4.0,75,0.00,,,0.00,meteohub,2013-05-05 00:42:00,
2013-05-04 17:47:00,57.2,49.3,29.75,NW,315,2.0,4.0,75,0.00,,,0.00,meteohub,2013-05-05 00:47:00,
2013-05-04 17:52:00,57.2,49.6,29.75,NW,315,2.0,4.0,76,0.00,,,0.00,meteohub,2013-05-05 00:52:00,
2013-05-04 17:57:00,57.2,49.6,29.75,NW,315,4.0,4.0,76,0.00,,,0.00,meteohub,2013-05-05 00:57:00,
2013-05-04 18:02:00,57.2,49.6,29.75,West,270,3.0,4.0,76,0.00,,,0.00,meteohub,2013-05-05 01:02:00,
2013-05-04 18:07:00,57.0,49.1,29.74,NW,315,2.0,4.0,75,0.00,,,0.00,meteohub,2013-05-05 01:07:00,
2013-05-04 18:12:00,56.8,49.3,29.74,NW,315,3.0,4.0,76,0.00,,,0.00,meteohub,2013-05-05 01:12:00,
2013-05-04 18:17:00,56.7,49.1,29.75,NW,315,3.0,4.0,76,0.00,,,0.00,meteohub,2013-05-05 01:17:00,
2013-05-04 18:22:00,56.7,49.1,29.75,NW,315,3.0,4.0,76,0.00,,,0.00,meteohub,2013-05-05 01:22:00,
2013-05-04 18:27:00,56.5,49.3,29.75,NW,315,4.0,4.0,77,0.00,,,0.00,meteohub,2013-05-05 01:27:00,
2013-05-04 18:32:00,56.1,48.9,29.75,West,270,3.0,4.0,77,0.00,,,0.00,meteohub,2013-05-05 01:32:00,
2013-05-04 18:37:00,55.9,48.9,29.74,NW,315,3.0,4.0,77,0.00,,,0.00,meteohub,2013-05-05 01:37:00,
2013-05-04 18:42:00,55.8,48.9,29.74,NW,315,4.0,4.0,78,0.00,,,0.00,meteohub,2013-05-05 01:42:00,
2013-05-04 18:47:00,55.6,48.9,29.75,NW,315,3.0,4.0,78,0.00,,,0.00,meteohub,2013-05-05 01:47:00,
2013-05-04 18:52:00,55.6,48.9,29.74,NW,315,3.0,4.0,78,0.00,,,0.00,meteohub,2013-05-05 01:52:00,
2013-05-04 18:57:00,55.4,48.9,29.75,NW,315,3.0,4.0,79,0.00,,,0.00,meteohub,2013-05-05 01:57:00,
2013-05-04 19:02:00,55.2,48.7,29.75,NW,315,4.0,4.0,79,0.00,,,0.00,meteohub,2013-05-05 02:02:00,
2013-05-04 19:07:00,55.2,48.7,29.75,NNW,338,3.0,4.0,79,0.00,,,0.00,meteohub,2013-05-05 02:07:00,
2013-05-04 19:12:00,54.9,48.7,29.75,NW,315,2.0,4.0,80,0.00,,,0.00,meteohub,2013-05-05 02:12:00,
2013-05-04 19:17:00,54.9,48.7,29.74,NW,315,2.0,4.0,80,0.00,,,0.00,meteohub,2013-05-05 02:17:00,
2013-05-04 19:22:00,54.7,48.6,29.75,NW,315,3.0,4.0,80,0.00,,,0.00,meteohub,2013-05-05 02:22:00,
2013-05-04 19:27:00,54.7,48.9,29.75,NW,315,3.0,4.0,81,0.00,,,0.00,meteohub,2013-05-05 02:27:00,
2013-05-04 19:32:00,54.5,48.7,29.75,NW,315,2.0,4.0,81,0.00,,,0.00,meteohub,2013-05-05 02:32:00,
2013-05-04 19:37:00,54.5,48.7,29.75,NW,315,3.0,4.0,81,0.00,,,0.00,meteohub,2013-05-05 02:37:00,
2013-05-04 19:42:00,54.3,48.9,29.75,NW,315,3.0,4.0,82,0.00,,,0.00,meteohub,2013-05-05 02:42:00,
2013-05-04 19:47:00,54.1,48.7,29.75,NW,315,4.0,4.0,82,0.00,,,0.00,meteohub,2013-05-05 02:47:00,
2013-05-04 19:52:00,54.0,48.6,29.75,NW,315,4.0,4.0,82,0.00,,,0.00,meteohub,2013-05-05 02:52:00,
2013-05-04 19:57:00,54.0,48.6,29.75,NW,315,3.0,4.0,82,0.00,,,0.00,meteohub,2013-05-05 02:57:00,
2013-05-04 20:02:00,54.0,48.6,29.75,NW,315,4.0,4.0,82,0.00,,,0.00,meteohub,2013-05-05 03:02:00,
2013-05-04 20:07:00,53.8,48.4,29.75,NW,315,4.0,4.0,82,0.00,,,0.00,meteohub,2013-05-05 03:07:00,
2013-05-04 20:12:00,53.8,48.4,29.75,NW,315,3.0,4.0,82,0.00,,,0.00,meteohub,2013-05-05 03:12:00,
2013-05-04 20:17:00,53.6,48.2,29.75,NW,315,3.0,4.0,82,0.00,,,0.00,meteohub,2013-05-05 03:17:00,
2013-05-04 20:22:00,53.6,48.2,29.75,NW,315,4.0,4.0,82,0.00,,,0.00,meteohub,2013-05-05 03:22:00,
2013-05-04 20:27:00,53.6,48.2,29.75,West,270,2.0,4.0,82,0.00,,,0.00,meteohub,2013-05-05 03:27:00,
2013-05-04 20:32:00,53.4,48.0,29.75,West,270,4.0,4.0,82,0.00,,,0.00,meteohub,2013-05-05 03:32:00,
2013-05-04 20:37:00,53.4,48.0,29.75,NW,315,4.0,4.0,82,0.00,,,0.00,meteohub,2013-05-05 03:37:00,
2013-05-04 20:42:00,53.4,48.0,29.76,NW,315,4.0,4.0,82,0.00,,,0.00,meteohub,2013-05-05 03:42:00,
2013-05-04 20:47:00,53.2,47.5,29.76,NW,315,2.0,4.0,81,0.00,,,0.00,meteohub,2013-05-05 03:47:00,
2013-05-04 20:52:00,53.2,47.5,29.76,NW,315,3.0,4.0,81,0.00,,,0.00,meteohub,2013-05-05 03:52:00,
2013-05-04 20:57:00,53.2,47.8,29.75,NW,315,3.0,4.0,82,0.00,,,0.00,meteohub,2013-05-05 03:57:00,
2013-05-04 21:02:00,53.2,47.8,29.76,NW,315,4.0,4.0,82,0.00,,,0.00,meteohub,2013-05-05 04:02:00,
2013-05-04 21:07:00,53.2,47.8,29.76,NW,315,4.0,4.0,82,0.00,,,0.00,meteohub,2013-05-05 04:07:00,
2013-05-04 21:12:00,53.2,47.8,29.76,NW,315,4.0,4.0,82,0.00,,,0.00,meteohub,2013-05-05 04:12:00,
2013-05-04 21:17:00,53.1,47.7,29.76,WNW,293,4.0,4.0,82,0.00,,,0.00,meteohub,2013-05-05 04:17:00,
2013-05-04 21:22:00,53.1,47.7,29.76,NNW,338,5.0,6.0,82,0.00,,,0.00,meteohub,2013-05-05 04:22:00,
2013-05-04 21:27:00,52.9,47.5,29.76,NW,315,3.0,6.0,82,0.00,,,0.00,meteohub,2013-05-05 04:27:00,
2013-05-04 21:32:00,52.7,47.3,29.76,NW,315,4.0,6.0,82,0.00,,,0.00,meteohub,2013-05-05 04:32:00,
2013-05-04 21:37:00,52.3,46.9,29.76,NE,45,5.0,6.0,82,0.00,,,0.00,meteohub,2013-05-05 04:37:00,
2013-05-04 21:42:00,52.7,47.3,29.76,West,270,4.0,6.0,82,0.00,,,0.00,meteohub,2013-05-05 04:42:00,
2013-05-04 21:47:00,52.7,47.3,29.77,North,0,4.0,6.0,82,0.00,,,0.00,meteohub,2013-05-05 04:47:00,
2013-05-04 21:52:00,52.7,47.3,29.77,NW,315,3.0,5.0,82,0.00,,,0.00,meteohub,2013-05-05 04:52:00,
2013-05-04 21:57:00,52.7,47.7,29.76,NW,315,5.0,5.0,83,0.00,,,0.00,meteohub,2013-05-05 04:57:00,
2013-05-04 22:02:00,52.7,47.7,29.76,NW,315,4.0,8.0,83,0.00,,,0.00,meteohub,2013-05-05 05:02:00,
2013-05-04 22:07:00,52.7,47.7,29.76,NW,315,4.0,8.0,83,0.00,,,0.00,meteohub,2013-05-05 05:07:00,
2013-05-04 22:12:00,52.5,47.1,29.76,NW,315,4.0,6.0,82,0.00,,,0.00,meteohub,2013-05-05 05:12:00,
2013-05-04 22:17:00,52.5,47.1,29.76,NW,315,4.0,5.0,82,0.00,,,0.00,meteohub,2013-05-05 05:17:00,
2013-05-04 22:22:00,52.5,47.1,29.76,NW,315,4.0,11.0,82,0.00,,,0.00,meteohub,2013-05-05 05:22:00,
2013-05-04 22:27:00,52.5,47.1,29.75,NW,315,4.0,11.0,82,0.00,,,0.00,meteohub,2013-05-05 05:27:00,
2013-05-04 22:32:00,52.5,47.1,29.75,NW,315,5.0,11.0,82,0.00,,,0.00,meteohub,2013-05-05 05:32:00,
2013-05-04 22:37:00,52.7,47.1,29.75,NW,315,4.0,6.0,81,0.00,,,0.00,meteohub,2013-05-05 05:37:00,
2013-05-04 22:42:00,52.7,47.1,29.75,NW,315,4.0,11.0,81,0.00,,,0.00,meteohub,2013-05-05 05:42:00,
2013-05-04 22:47:00,52.7,47.1,29.76,SW,225,4.0,11.0,81,0.00,,,0.00,meteohub,2013-05-05 05:47:00,
2013-05-04 22:52:00,52.7,47.1,29.76,NW,315,4.0,6.0,81,0.00,,,0.00,meteohub,2013-05-05 05:52:00,
2013-05-04 22:57:00,52.7,47.1,29.75,West,270,4.0,6.0,81,0.00,,,0.00,meteohub,2013-05-05 05:57:00,
2013-05-04 23:02:00,52.7,47.1,29.76,NW,315,4.0,5.0,81,0.00,,,0.00,meteohub,2013-05-05 06:02:00,
2013-05-04 23:07:00,52.7,47.1,29.76,NW,315,4.0,5.0,81,0.00,,,0.00,meteohub,2013-05-05 06:07:00,
2013-05-04 23:12:00,52.9,47.3,29.75,NW,315,4.0,4.0,81,0.00,,,0.00,meteohub,2013-05-05 06:12:00,
2013-05-04 23:17:00,52.9,47.3,29.75,NW,315,5.0,5.0,81,0.00,,,0.00,meteohub,2013-05-05 06:17:00,
2013-05-04 23:22:00,52.9,47.3,29.76,NNW,338,4.0,7.0,81,0.00,,,0.00,meteohub,2013-05-05 06:22:00,
2013-05-04 23:27:00,52.9,47.3,29.75,NW,315,6.0,7.0,81,0.00,,,0.00,meteohub,2013-05-05 06:27:00,
2013-05-04 23:32:00,52.9,47.3,29.75,NW,315,4.0,6.0,81,0.00,,,0.00,meteohub,2013-05-05 06:32:00,
2013-05-04 23:37:00,53.1,47.3,29.75,NW,315,5.0,6.0,81,0.00,,,0.00,meteohub,2013-05-05 06:37:00,
2013-05-04 23:42:00,53.1,47.3,29.75,NW,315,4.0,6.0,81,0.00,,,0.00,meteohub,2013-05-05 06:42:00,
2013-05-04 23:47:00,53.1,47.7,29.75,NW,315,4.0,5.0,82,0.00,,,0.00,meteohub,2013-05-05 06:47:00,
2013-05-04 23:52:00,53.1,47.7,29.75,NW,315,5.0,5.0,82,0.00,,,0.00,meteohub,2013-05-05 06:52:00,
2013-05-04 23:57:00,53.1,47.7,29.75,NW,315,3.0,5.0,82,0.00,,,0.00,meteohub,2013-05-05 06:57:00,